createdAt,value
2023-01-13T00:02:19.391Z,100158.94
2023-01-13T00:04:59.928Z,100155.72
2023-01-13T00:07:44.529Z,100156.41
2023-01-13T00:10:23.891Z,100155.03
2023-01-13T00:13:08.242Z,100153.63
2023-01-13T00:15:55.227Z,100157.53
2023-01-13T00:18:39.460Z,100148.88
2023-01-13T00:21:24.135Z,100155.72
2023-01-13T00:24:03.820Z,100155.03
2023-01-13T00:26:45.458Z,100150.69
2023-01-13T00:29:27.459Z,100150.69
2023-01-13T00:32:16.287Z,100152.81
2023-01-13T00:34:57.610Z,100152.53
2023-01-13T00:37:35.349Z,100144.41
2023-01-13T00:40:14.519Z,100142.59
2023-01-13T00:43:05.555Z,100146.09
2023-01-13T00:45:51.552Z,100142.47
2023-01-13T00:48:31.119Z,100142.72
2023-01-13T00:51:07.949Z,100146.09
2023-01-13T00:53:43.878Z,100143.16
2023-01-13T00:56:38.996Z,100148.59
2023-01-13T00:59:39.081Z,100149.16
2023-01-13T01:02:29.214Z,100150.28
2023-01-13T01:05:09.819Z,100142.19
2023-01-13T01:07:48.170Z,100148.59
2023-01-13T01:10:32.357Z,100145.25
2023-01-13T01:13:20.424Z,100134.22
2023-01-13T01:16:01.519Z,100127.34
2023-01-13T01:18:40.222Z,100122.34
2023-01-13T01:21:17.919Z,100117.84
2023-01-13T01:24:02.032Z,100119.63
2023-01-13T01:26:43.912Z,100115.84
2023-01-13T01:29:24.475Z,100120.22
2023-01-13T01:32:09.395Z,100120.31
2023-01-13T01:34:52.580Z,100113.03
2023-01-13T01:37:47.297Z,100110.38
2023-01-13T01:40:28.419Z,100111.00
2023-01-13T01:43:28.486Z,100107.22
2023-01-13T01:46:13.082Z,100105.63
2023-01-13T01:48:53.903Z,100106.63
2023-01-13T01:51:29.770Z,100104.28
2023-01-13T01:54:24.644Z,100102.34
2023-01-13T01:57:07.533Z,100109.25
2023-01-13T01:59:56.595Z,100105.63
2023-01-13T02:02:41.916Z,100103.69
2023-01-13T02:05:22.550Z,100101.91
2023-01-13T02:08:09.299Z,100105.16
2023-01-13T02:10:51.993Z,100095.84
2023-01-13T02:13:40.725Z,100091.09
2023-01-13T02:16:30.224Z,100091.94
2023-01-13T02:19:32.332Z,100087.41
2023-01-13T02:22:42.338Z,100090.69
2023-01-13T02:25:46.493Z,100091.97
2023-01-13T02:29:16.804Z,100091.03
2023-01-13T02:31:59.689Z,100080.16
2023-01-13T02:34:39.285Z,100074.53
2023-01-13T02:37:28.827Z,100076.59
2023-01-13T02:40:25.989Z,100079.84
2023-01-13T02:43:31.593Z,100074.41
2023-01-13T02:46:41.409Z,100063.59
2023-01-13T02:49:35.594Z,100060.88
2023-01-13T02:52:24.891Z,100060.84
2023-01-13T02:55:12.322Z,100064.28
2023-01-13T02:57:56.119Z,100061.63
2023-01-13T03:00:34.980Z,100068.16
2023-01-13T03:03:18.918Z,100060.94
2023-01-13T03:06:10.862Z,100057.69
2023-01-13T03:09:00.648Z,100053.59
2023-01-13T03:12:05.565Z,100053.78
2023-01-13T03:14:53.340Z,100059.22
2023-01-13T03:17:44.320Z,100056.31
2023-01-13T03:20:27.971Z,100050.00
2023-01-13T03:23:27.165Z,100045.41
2023-01-13T03:26:22.265Z,100046.72
2023-01-13T03:29:17.223Z,100048.31
2023-01-13T03:32:07.798Z,100051.22
2023-01-13T03:34:56.467Z,100039.19
2023-01-13T03:37:57.235Z,100042.16
2023-01-13T03:40:37.080Z,100045.28
2023-01-13T03:43:34.773Z,100041.03
2023-01-13T03:46:20.152Z,100043.56
2023-01-13T03:48:55.880Z,100047.63
2023-01-13T03:51:39.211Z,100041.38
2023-01-13T03:54:23.381Z,100039.03
2023-01-13T03:57:18.122Z,100047.41
2023-01-13T04:00:07.400Z,100035.00
2023-01-13T04:03:00.829Z,100044.56
2023-01-13T04:05:36.645Z,100043.66
2023-01-13T04:08:34.218Z,100046.66
2023-01-13T04:11:28.361Z,100053.69
2023-01-13T04:14:12.100Z,100056.78
2023-01-13T04:17:05.919Z,100048.72
2023-01-13T04:19:50.024Z,100045.69
2023-01-13T04:22:28.175Z,100054.09
2023-01-13T04:25:11.834Z,100056.34
2023-01-13T04:28:03.699Z,100048.69
2023-01-13T04:30:53.244Z,100046.47
2023-01-13T04:33:34.656Z,100051.34
2023-01-13T04:36:13.731Z,100049.28
2023-01-13T04:39:07.762Z,100051.97
2023-01-13T04:41:58.208Z,100051.19
2023-01-13T04:44:41.661Z,100056.59
2023-01-13T04:47:27.941Z,100054.06
2023-01-13T04:50:18.568Z,100051.75
2023-01-13T04:53:10.448Z,100056.41
2023-01-13T04:55:47.940Z,100059.91
2023-01-13T04:58:34.615Z,100064.97
2023-01-13T05:01:24.774Z,100069.97
2023-01-13T05:04:15.504Z,100067.59
2023-01-13T05:06:50.809Z,100062.69
2023-01-13T05:09:36.517Z,100067.84
2023-01-13T05:12:34.175Z,100067.47
2023-01-13T05:15:40.370Z,100067.47
2023-01-13T05:18:19.167Z,100061.59
2023-01-13T05:21:03.354Z,100061.88
2023-01-13T05:24:04.786Z,100058.22
2023-01-13T05:26:54.229Z,100068.31
2023-01-13T05:29:34.923Z,100062.78
2023-01-13T05:32:21.339Z,100079.47
2023-01-13T05:35:07.372Z,100074.63
2023-01-13T05:37:53.634Z,100073.50
2023-01-13T05:40:45.527Z,100074.94
2023-01-13T05:43:25.016Z,100072.56
2023-01-13T05:46:11.968Z,100068.09
2023-01-13T05:48:50.796Z,100067.81
2023-01-13T05:51:42.927Z,100070.34
2023-01-13T05:54:29.469Z,100074.13
2023-01-13T05:57:15.646Z,100075.38
2023-01-13T05:59:55.678Z,100075.38
2023-01-13T06:02:37.020Z,100074.13
2023-01-13T06:05:09.849Z,100073.41
2023-01-13T06:08:01.531Z,100078.72
2023-01-13T06:10:37.183Z,100075.09
2023-01-13T06:13:16.098Z,100080.66
2023-01-13T06:15:56.886Z,100078.16
2023-01-13T06:18:41.380Z,100079.84
2023-01-13T06:21:18.744Z,100079.97
2023-01-13T06:23:59.225Z,100075.19
2023-01-13T06:26:31.885Z,100076.59
2023-01-13T06:29:10.160Z,100073.66
2023-01-13T06:31:45.960Z,100084.25
2023-01-13T06:34:35.411Z,100085.34
2023-01-13T06:37:14.042Z,100076.00
2023-01-13T06:39:55.570Z,100084.53
2023-01-13T06:42:52.200Z,100089.88
2023-01-13T06:45:26.828Z,100094.88
2023-01-13T06:48:07.429Z,100087.28
2023-01-13T06:50:47.704Z,100097.09
2023-01-13T06:53:28.322Z,100092.88
2023-01-13T06:56:09.078Z,100095.66
2023-01-13T06:58:47.286Z,100102.63
2023-01-13T07:01:28.376Z,100105.47
2023-01-13T07:04:11.639Z,100106.13
2023-01-13T07:06:55.469Z,100105.03
2023-01-13T07:09:30.609Z,100101.81
2023-01-13T07:12:07.381Z,100106.44
2023-01-13T07:14:58.033Z,100106.31
2023-01-13T07:17:33.252Z,100107.56
2023-01-13T07:20:18.016Z,100110.38
2023-01-13T07:23:02.815Z,100107.44
2023-01-13T07:25:44.033Z,100106.72
2023-01-13T07:28:16.772Z,100109.47
2023-01-13T07:30:59.886Z,100111.56
2023-01-13T07:33:38.419Z,100110.97
2023-01-13T07:36:19.668Z,100115.97
2023-01-13T07:38:58.669Z,100115.47
2023-01-13T07:41:57.592Z,100110.94
2023-01-13T07:44:35.063Z,100111.47
2023-01-13T07:47:17.669Z,100114.81
2023-01-13T07:50:00.449Z,100105.28
2023-01-13T07:52:32.495Z,100115.63
2023-01-13T07:55:10.057Z,100113.66
2023-01-13T07:58:01.531Z,100114.75
2023-01-13T08:00:39.441Z,100124.91
2023-01-13T08:03:27.921Z,100121.78
2023-01-13T08:06:07.171Z,100125.25
2023-01-13T08:08:43.219Z,100128.63
2023-01-13T08:11:18.331Z,100135.53
2023-01-13T08:14:14.115Z,100129.94
2023-01-13T08:16:55.512Z,100131.00
2023-01-13T08:19:30.703Z,100125.84
2023-01-13T08:22:09.012Z,100132.25
2023-01-13T08:24:52.757Z,100147.91
2023-01-13T08:27:27.989Z,100145.75
2023-01-13T08:30:05.707Z,100147.53
2023-01-13T08:32:51.177Z,100148.31
2023-01-13T08:35:31.057Z,100148.13
2023-01-13T08:38:03.108Z,100146.59
2023-01-13T08:40:44.050Z,100147.75
2023-01-13T08:43:21.774Z,100146.09
2023-01-13T08:46:19.710Z,100152.94
2023-01-13T08:49:00.992Z,100153.56
2023-01-13T08:51:44.931Z,100147.69
2023-01-13T08:54:25.648Z,100148.16
2023-01-13T08:56:57.334Z,100143.19
2023-01-13T08:59:32.504Z,100144.63
2023-01-13T09:02:27.033Z,100153.84
2023-01-13T09:05:03.004Z,100146.59
2023-01-13T09:07:42.293Z,100139.00
2023-01-13T09:10:12.278Z,100144.81
2023-01-13T09:13:05.741Z,100146.56
2023-01-13T09:15:48.904Z,100139.66
2023-01-13T09:18:29.150Z,100144.38
2023-01-13T09:21:07.232Z,100136.06
2023-01-13T09:23:49.041Z,100135.13
2023-01-13T09:26:32.853Z,100133.50
2023-01-13T09:29:09.809Z,100135.50
2023-01-13T09:31:59.010Z,100127.53
2023-01-13T09:34:46.041Z,100125.34
2023-01-13T09:37:32.570Z,100132.19
2023-01-13T09:40:09.760Z,100128.22
2023-01-13T09:43:17.889Z,100132.88
2023-01-13T09:45:59.226Z,100131.72
2023-01-13T09:48:52.071Z,100137.72
2023-01-13T09:51:35.407Z,100130.53
2023-01-13T09:54:12.435Z,100142.09
2023-01-13T09:56:47.746Z,100144.25
2023-01-13T09:59:29.057Z,100143.91
2023-01-13T10:02:28.938Z,100146.56
2023-01-13T10:05:16.459Z,100145.25
2023-01-13T10:08:11.108Z,100143.22
2023-01-13T10:10:59.647Z,100149.25
2023-01-13T10:13:35.471Z,100138.06
2023-01-13T10:16:26.995Z,100141.38
2023-01-13T10:19:09.032Z,100139.56
2023-01-13T10:22:11.191Z,100139.91
2023-01-13T10:25:05.347Z,100134.22
2023-01-13T10:27:43.325Z,100122.84
2023-01-13T10:30:31.672Z,100130.22
2023-01-13T10:33:27.699Z,100122.50
2023-01-13T10:36:13.182Z,100113.81
2023-01-13T10:38:56.175Z,100110.31
2023-01-13T10:41:38.005Z,100109.25
2023-01-13T10:44:32.863Z,100110.09
2023-01-13T10:47:28.880Z,100099.72
2023-01-13T10:50:27.367Z,100093.38
2023-01-13T10:53:22.419Z,100103.09
2023-01-13T10:56:18.265Z,100088.53
2023-01-13T10:58:50.887Z,100084.81
2023-01-13T11:01:37.778Z,100084.72
2023-01-13T11:04:36.332Z,100081.13
2023-01-13T11:07:34.475Z,100081.88
2023-01-13T11:10:26.164Z,100075.59
2023-01-13T11:13:33.445Z,100077.03
2023-01-13T11:16:31.411Z,100070.97
2023-01-13T11:19:15.195Z,100070.81
2023-01-13T11:22:04.350Z,100076.47
2023-01-13T11:25:01.832Z,100066.66
2023-01-13T11:27:52.797Z,100070.19
2023-01-13T11:30:42.905Z,100063.59
2023-01-13T11:33:18.801Z,100057.69
2023-01-13T11:36:01.299Z,100039.09
2023-01-13T11:38:48.005Z,100046.59
2023-01-13T11:41:29.148Z,100042.38
2023-01-13T11:44:17.922Z,100042.25
2023-01-13T11:47:04.727Z,100041.00
2023-01-13T11:49:42.645Z,100029.63
2023-01-13T11:52:33.081Z,100015.56
2023-01-13T11:55:37.644Z,100000.25
2023-01-13T11:58:15.918Z,99999.13
2023-01-13T12:01:05.464Z,99989.69
2023-01-13T12:03:48.288Z,99990.59
2023-01-13T12:06:48.756Z,99988.66
2023-01-13T12:09:47.668Z,99980.31
2023-01-13T12:12:47.538Z,99976.72
2023-01-13T12:15:50.740Z,99971.06
2023-01-13T12:19:24.666Z,99976.31
2023-01-13T12:22:23.662Z,99976.84
2023-01-13T12:25:18.283Z,99988.63
2023-01-13T12:28:20.387Z,99979.63
2023-01-13T12:31:11.471Z,99986.28
2023-01-13T12:34:14.680Z,99985.16
2023-01-13T12:36:58.611Z,99987.00
2023-01-13T12:39:37.097Z,99990.94
2023-01-13T12:42:31.304Z,99991.00
2023-01-13T12:45:13.057Z,100009.06
2023-01-13T12:47:55.072Z,100008.63
2023-01-13T12:50:30.988Z,100009.38
2023-01-13T12:53:00.214Z,100002.47
2023-01-13T12:55:43.535Z,100004.72
2023-01-13T12:58:17.487Z,99996.81
2023-01-13T13:00:49.592Z,99996.28
2023-01-13T13:03:37.962Z,100005.41
2023-01-13T13:06:24.134Z,100006.50
2023-01-13T13:09:07.884Z,99999.56
2023-01-13T13:12:03.359Z,100009.53
2023-01-13T13:15:08.327Z,100004.09
2023-01-13T13:18:02.454Z,100001.75
2023-01-13T13:21:04.543Z,100005.81
2023-01-13T13:23:44.406Z,100014.03
2023-01-13T13:26:45.757Z,100007.78
2023-01-13T13:32:39.546Z,100011.06
2023-01-13T13:35:56.430Z,99993.44
2023-01-13T13:39:08.917Z,100001.31
2023-01-13T13:42:10.232Z,100002.38
2023-01-13T13:45:06.261Z,100002.72
2023-01-13T13:47:46.843Z,100006.03
2023-01-13T13:50:29.584Z,100002.34
2023-01-13T13:53:09.344Z,99993.13
2023-01-13T13:56:01.237Z,99995.63
2023-01-13T13:58:37.435Z,100000.75
2023-01-13T14:01:09.681Z,100009.81
2023-01-13T14:03:42.305Z,100012.13
2023-01-13T14:06:29.973Z,100011.81
2023-01-13T14:09:24.177Z,100019.84
2023-01-13T14:12:07.925Z,100014.13
2023-01-13T14:14:52.158Z,100010.44
2023-01-13T14:17:37.269Z,100015.56
2023-01-13T14:20:20.609Z,100005.06
2023-01-13T14:23:01.604Z,100002.75
2023-01-13T14:25:51.845Z,100007.28
2023-01-13T14:28:29.215Z,100003.41
2023-01-13T14:31:10.322Z,100007.59
2023-01-13T14:33:53.063Z,100005.63
2023-01-13T14:36:42.851Z,100016.00
2023-01-13T14:39:21.056Z,100020.78
2023-01-13T14:41:54.912Z,100016.31
2023-01-13T14:44:36.150Z,100014.38
2023-01-13T14:47:28.104Z,100014.06
2023-01-13T14:50:16.497Z,100018.91
2023-01-13T14:53:04.237Z,100026.94
2023-01-13T14:55:43.436Z,100023.28
2023-01-13T14:58:28.627Z,100026.44
2023-01-13T15:01:28.414Z,100030.13
2023-01-13T15:04:28.108Z,100023.44
2023-01-13T15:07:13.008Z,100027.13
2023-01-13T15:09:51.219Z,100020.75
2023-01-13T15:12:43.439Z,100018.63
2023-01-13T15:15:38.808Z,100015.44
2023-01-13T15:18:19.809Z,100013.44
2023-01-13T15:20:58.287Z,100013.91
2023-01-13T15:23:35.672Z,100000.69
2023-01-13T15:26:11.380Z,100013.75
2023-01-13T15:28:50.065Z,100015.56
2023-01-13T15:31:34.235Z,100019.78
2023-01-13T15:34:09.448Z,100029.81
2023-01-13T15:36:44.880Z,100025.31
2023-01-13T15:39:25.705Z,100023.28
2023-01-13T15:42:22.859Z,100024.47
2023-01-13T15:45:23.368Z,100002.22
2023-01-13T15:48:04.657Z,100016.44
2023-01-13T15:50:50.730Z,100008.59
2023-01-13T15:53:33.639Z,100007.78
2023-01-13T15:56:23.742Z,100017.53
2023-01-13T15:58:59.309Z,100030.19
2023-01-13T16:01:32.284Z,100036.91
2023-01-13T16:04:14.373Z,100032.75
2023-01-13T16:06:53.263Z,100041.56
2023-01-13T16:09:28.866Z,100043.25
2023-01-13T16:12:09.261Z,100048.25
2023-01-13T16:14:52.000Z,100045.25
2023-01-13T16:17:32.150Z,100040.19
2023-01-13T16:20:12.600Z,100035.25
2023-01-13T16:22:45.551Z,100044.59
2023-01-13T16:25:39.263Z,100043.59
2023-01-13T16:28:28.317Z,100047.13
2023-01-13T16:31:35.699Z,100047.28
2023-01-13T16:34:11.572Z,100046.09
2023-01-13T16:36:46.317Z,100041.75
2023-01-13T16:39:38.154Z,100042.59
2023-01-13T16:42:08.134Z,100045.28
2023-01-13T16:44:51.969Z,100046.25
2023-01-13T16:47:32.167Z,100046.09
2023-01-13T16:50:11.326Z,100042.47
2023-01-13T16:52:47.445Z,100044.91
2023-01-13T16:55:28.632Z,100048.44
2023-01-13T16:58:04.336Z,100051.59
2023-01-13T17:00:41.555Z,100051.94
2023-01-13T17:03:19.192Z,100054.97
2023-01-13T17:05:55.056Z,100057.66
2023-01-13T17:08:38.837Z,100054.66
2023-01-13T17:11:14.053Z,100058.34
2023-01-13T17:13:49.312Z,100060.00
2023-01-13T17:16:31.628Z,100051.47
2023-01-13T17:19:09.447Z,100054.97
2023-01-13T17:21:47.143Z,100057.66
2023-01-13T17:24:25.987Z,100059.63
2023-01-13T17:27:10.013Z,100048.44
2023-01-13T17:29:45.687Z,100049.75
2023-01-13T17:32:24.790Z,100043.59
2023-01-13T17:35:02.711Z,100047.94
2023-01-13T17:37:38.388Z,100046.72
2023-01-13T17:40:11.692Z,100050.28
2023-01-13T17:42:46.984Z,100055.81
2023-01-13T17:45:37.282Z,100067.50
2023-01-13T17:48:09.847Z,100058.16
2023-01-13T17:50:52.368Z,100060.16
2023-01-13T17:53:30.694Z,100070.38
2023-01-13T17:56:14.584Z,100071.38
2023-01-13T17:58:46.980Z,100071.56
2023-01-13T18:01:23.128Z,100069.19
2023-01-13T18:04:07.284Z,100067.88
2023-01-13T18:06:45.197Z,100058.84
2023-01-13T18:09:17.995Z,100064.22
2023-01-13T18:11:53.304Z,100064.72
2023-01-13T18:14:28.578Z,100065.03
2023-01-13T18:17:06.319Z,100058.50
2023-01-13T18:19:59.811Z,100064.38
2023-01-13T18:22:53.675Z,100054.19
2023-01-13T18:26:07.459Z,100044.84
2023-01-13T18:28:44.264Z,100053.03
2023-01-13T18:31:24.928Z,100059.38
2023-01-13T18:34:03.317Z,100056.88
2023-01-13T18:36:46.461Z,100053.53
2023-01-13T18:39:22.114Z,100061.56
2023-01-13T18:42:13.481Z,100057.19
2023-01-13T18:44:48.228Z,100062.38
2023-01-13T18:47:23.300Z,100060.88
2023-01-13T18:49:58.313Z,100065.56
2023-01-13T18:52:31.578Z,100057.19
2023-01-13T18:55:12.592Z,100046.69
2023-01-13T18:57:42.762Z,100065.22
2023-01-13T19:00:23.421Z,100065.41
2023-01-13T19:05:40.892Z,100077.75
2023-01-13T19:08:18.913Z,100071.88
2023-01-13T19:11:04.405Z,100069.22
2023-01-13T19:13:52.478Z,100079.44
2023-01-13T19:16:30.746Z,100073.22
2023-01-13T19:19:08.360Z,100074.03
2023-01-13T19:21:43.811Z,100078.56
2023-01-13T19:24:21.579Z,100072.06
2023-01-13T19:27:07.365Z,100068.03
2023-01-13T19:29:53.631Z,100073.38
2023-01-13T19:32:29.048Z,100081.41
2023-01-13T19:35:02.411Z,100072.91
2023-01-13T19:37:46.440Z,100077.06
2023-01-13T19:40:24.185Z,100088.63
2023-01-13T19:43:20.650Z,100081.59
2023-01-13T19:46:04.930Z,100091.44
2023-01-13T19:48:32.448Z,100100.13
2023-01-13T19:51:09.248Z,100114.84
2023-01-13T19:53:47.515Z,100117.88
2023-01-13T19:56:18.648Z,100119.19
2023-01-13T19:58:50.924Z,100116.34
2023-01-13T20:01:36.400Z,100120.00
2023-01-13T20:04:17.177Z,100118.34
2023-01-13T20:07:13.738Z,100120.84
2023-01-13T20:10:01.332Z,100121.19
2023-01-13T20:12:42.811Z,100121.53
2023-01-13T20:15:27.332Z,100123.19
2023-01-13T20:18:05.455Z,100116.16
2023-01-13T20:20:53.558Z,100123.03
2023-01-13T20:23:41.710Z,100115.00
2023-01-13T20:26:24.845Z,100115.66
2023-01-13T20:29:06.311Z,100109.66
2023-01-13T20:31:45.152Z,100113.81
2023-01-13T20:34:20.578Z,100133.53
2023-01-13T20:36:59.331Z,100165.94
2023-01-13T20:39:46.575Z,100186.03
2023-01-13T20:42:31.729Z,100189.19
2023-01-13T20:45:23.991Z,100183.53
2023-01-13T20:48:05.704Z,100177.66
2023-01-13T20:50:46.283Z,100177.19
2023-01-13T20:53:25.434Z,100167.66
2023-01-13T20:56:09.793Z,100156.28
2023-01-13T20:58:47.763Z,100146.59
2023-01-13T21:01:30.916Z,100139.06
2023-01-13T21:04:10.208Z,100142.25
2023-01-13T21:06:53.878Z,100146.94
2023-01-13T21:09:34.318Z,100152.28
2023-01-13T21:12:25.901Z,100138.56
2023-01-13T21:15:21.994Z,100127.72
2023-01-13T21:18:13.142Z,100118.19
2023-01-13T21:21:08.734Z,100131.56
2023-01-13T21:23:42.529Z,100141.25
2023-01-13T21:26:19.724Z,100138.91
2023-01-13T21:28:56.049Z,100128.88
2023-01-13T21:31:32.780Z,100115.50
2023-01-13T21:34:30.545Z,100116.50
2023-01-13T21:37:16.157Z,100117.84
2023-01-13T21:39:59.876Z,100115.31
2023-01-13T21:42:53.988Z,100120.84
2023-01-13T21:45:46.083Z,100126.22
2023-01-13T21:48:28.739Z,100113.00
2023-01-13T21:51:25.231Z,100098.13
2023-01-13T21:54:12.579Z,100094.09
2023-01-13T21:56:53.737Z,100080.09
2023-01-13T21:59:40.679Z,100071.88
2023-01-13T22:02:32.397Z,100076.72
2023-01-13T22:05:23.018Z,100102.97
2023-01-13T22:07:58.678Z,100085.91
2023-01-13T22:11:17.676Z,100082.88
2023-01-13T22:14:10.156Z,100087.91
2023-01-13T22:16:50.044Z,100133.88
2023-01-13T22:19:27.113Z,100165.13
2023-01-13T22:22:08.993Z,100180.34
2023-01-13T22:24:42.441Z,100173.66
2023-01-13T22:27:42.721Z,100187.38
2023-01-13T22:30:26.689Z,100198.75
2023-01-13T22:33:10.601Z,100210.47
2023-01-13T22:35:48.732Z,100209.78
2023-01-13T22:38:32.410Z,100219.13
2023-01-13T22:41:14.687Z,100216.31
2023-01-13T22:43:50.299Z,100209.59
2023-01-13T22:46:30.897Z,100205.75
2023-01-13T22:49:16.912Z,100197.41
2023-01-13T22:51:58.532Z,100188.88
2023-01-13T22:54:39.027Z,100183.69
2023-01-13T22:57:47.666Z,100173.84
2023-01-13T23:00:25.041Z,100165.97
2023-01-13T23:02:57.664Z,100164.31
2023-01-13T23:05:38.852Z,100159.13
2023-01-13T23:08:14.293Z,100146.91
2023-01-13T23:10:54.653Z,100135.03
2023-01-13T23:13:40.338Z,100137.22
2023-01-13T23:16:21.125Z,100139.56
2023-01-13T23:19:05.012Z,100139.72
2023-01-13T23:21:42.740Z,100144.44
2023-01-13T23:24:28.027Z,100142.38
2023-01-13T23:27:08.385Z,100134.38
2023-01-13T23:29:49.237Z,100133.88
2023-01-13T23:32:25.467Z,100131.88
2023-01-13T23:35:12.842Z,100124.19
2023-01-13T23:37:50.547Z,100133.19
2023-01-13T23:40:33.777Z,100126.53
2023-01-13T23:43:07.410Z,100134.06
2023-01-13T23:45:47.346Z,100133.53
2023-01-13T23:48:28.633Z,100128.88
2023-01-13T23:51:16.403Z,100141.22
2023-01-13T23:53:58.149Z,100138.53
2023-01-13T23:56:35.095Z,100146.25
2023-01-13T23:59:08.226Z,100142.91
